Eel River - 17nm Wsw Of Eureka, Ca (46022) Wave Buoy

7:50am - Wed 7th Oct 2015 All times are PDT. -7 hours from GMT.

  • Sig Wave height 3.0ft
  • Swell Direction
  • Peak Period 15s
  • Average Period 8s
  • Wind
    4mph, 7mph gusts
  • Sea Temp 54°f
  • Air Temp 55°f
  • Sea Pressure 1020.8mb
  • Eel River - 17nm Wsw Of Eureka, Ca
  • Eel River - 17nm Wsw Of Eureka, Ca

More Historic Weather Station data

Upgrade to MSW Pro to gain access to the past 30 days of data for over 8000 Wavebouys and Weather Stations around the globe.

Join Pro

Comparision Forecast

View Surf forecast
Wed 10/07 7:50am 3ft 15s 8s 4 7 mph 1020.8mb 54f 55f
6:50am 2.5ft 14s 9s 4
1020.6mb 54f 55f
5:50am 3ft 9s 8s 9 11 mph 1019.7mb 55f 55f
4:50am 2.5ft 10s 8s 4 7 mph 1020.5mb 55f 55f
3:50am 2.5ft 10s 8s 7 9 mph 1020.6mb 55f 56f
2:50am 3ft 15s 8s 7
1020.8mb 55f 55f
1:50am 2.5ft 10s 8s  -  2 mph 1020.7mb 55f 55f
12:50am 3ft 10s 8s 4 7 mph 1020.3mb 56f 56f
Tue 10/06 11:50pm 3ft 9s 8s  -  2 mph 1020.5mb 56f 57f
10:50pm 3ft 10s 8s 4 7 mph 1020.5mb 56f 57f
9:50pm 3ft 10s 8s 7 9 mph 1020.2mb 56f 57f
8:50pm 3ft 10s 8s 2
1019.1mb 56f 57f
7:50pm 3.5ft 10s 8s 4 7 mph 1019mb 56f 56f
6:50pm 3.5ft 10s 8s 4
1019.6mb 56f 57f
5:50pm 3ft 10s 7s 2 4 mph 1019.7mb 56f 57f
4:50pm 3ft 10s 7s 2 4 mph 1019.9mb 56f 58f
3:50pm 3ft 11s 7s 2
1019.8mb 56f 58f
2:50pm 2.5ft 11s 7s 2 4 mph 1020.1mb 56f 59f
1:50pm 3ft 11s 7s 7
1020.9mb 56f 58f
12:50pm 3ft 11s 7s 4
1021.2mb 55f 56f
11:50am 3ft 15s 7s 4 7 mph 1020.6mb 55f 57f
10:50am 3ft 8s 7s 4 7 mph 1020.5mb 55f 55f
9:50am 2.5ft 7s 7s 7
1020.3mb 55f 55f
8:50am 2.5ft 14s 6s 9
1019.5mb 55f 54f
7:50am 3ft 15s 7s 4 7 mph 1018.7mb 55f 54f
6:50am 2.5ft 8s 7s 4
1018mb 55f 54f
5:50am 3ft 8s 7s 4 7 mph 1017.7mb 55f 55f
4:50am 3ft 8s 6s 7 9 mph 1017.1mb 55f 55f
3:50am 3ft 8s 6s 4 7 mph 1017mb 55f 55f
2:50am 3ft 8s 6s 7
1016.3mb 55f 55f
1:50am 3.5ft 8s 6s 4 7 mph 1015.7mb 55f 55f
12:50am 3.5ft 8s 6s 7
1015.8mb 55f 55f
Mon 10/05 11:50pm 3.5ft 8s 6s 11 16 mph 1015.3mb 55f 56f
10:50pm 4ft 7s 6s 11 13 mph 1015.4mb 55f 56f
9:50pm 4ft 8s 6s 11 13 mph 1014.8mb 55f 56f
8:50pm 3.5ft 8s 5s 11 13 mph 1014mb 55f 56f
7:50pm 4ft 8s 5s 13 16 mph 1013.5mb 54f 56f
6:50pm 4ft 8s 5s 18 22 mph 1012.8mb 55f 56f
5:50pm 4ft 8s 5s 20 25 mph 1011.8mb 55f 57f
4:50pm 4ft 8s 5s 18 20 mph 1011.1mb 55f 56f
3:50pm 4.5ft 8s 5s 18 20 mph 1010.8mb 55f 56f
2:50pm 4.5ft 8s 5s 20 22 mph 1010.3mb 55f 56f
1:50pm 5ft 5s 5s 22 27 mph 1010.5mb 55f 55f
12:50pm 5ft 8s 5s 22 29 mph 1010.4mb 55f 55f
11:50am 5ft 9s 6s 18 20 mph 1010.2mb 55f 54f
10:50am 4.5ft 8s 6s 20 27 mph 1009.9mb 55f 53f
9:50am 4.5ft 7s 6s 13 18 mph 1009.4mb 55f 56f
8:50am 4.5ft 8s 6s 7
1009.1mb 54f 55f
7:50am 5ft 8s 6s 7 9 mph 1007.9mb 54f 55f
6:50am 5ft 9s 6s 9 11 mph 1007.6mb 54f 56f
5:50am 5ft 9s 6s 7
1007.1mb 55f 55f
4:50am 5ft 8s 6s 9
1006.4mb 54f 55f
3:50am 5ft 8s 6s 7
1006.4mb 54f 55f
2:50am 6ft 7s 7s 7
1006.2mb 54f 56f
1:50am 6ft 8s 7s 7 9 mph 1006mb 54f 56f
12:50am 6ft 8s 7s 9 11 mph 1005.6mb 54f 58f
Sun 10/04 11:50pm 6ft 7s 7s 11 13 mph 1005.3mb 55f 58f
10:50pm 5.5ft 9s 7s 11 13 mph 1005mb 55f 57f
9:50pm 5ft 8s 6s 7 9 mph 1004.6mb 55f 56f
8:50pm 5.5ft 10s 7s 7
1003.9mb 55f 57f
7:50pm 5ft 9s 7s 7
1003.4mb 55f 57f
6:50pm 6ft 10s 7s 7 9 mph 1003.3mb 55f 59f
5:50pm 5.5ft 9s 7s  -  2 mph 1003.1mb 55f 61f
4:50pm 5.5ft 10s 7s 2 4 mph 1003.2mb 55f 60f
3:50pm 6ft 10s 7s 9 11 mph 1002.9mb 55f 59f
2:50pm 7ft 10s 7s 7 9 mph 1002.9mb 55f 59f
1:50pm 7ft 10s 7s 7
1003.5mb 55f 58f
12:50pm 8ft 10s 7s 7 9 mph 1003.5mb 54f 57f
11:50am 8ft 10s 7s 9 11 mph 1003.7mb 54f 55f
10:50am 9ft 10s 7s 7 9 mph 1004.1mb 54f 55f
9:50am 10ft 10s 7s 9 11 mph 1004.1mb 53f 55f
8:50am 9ft 10s 7s 4 7 mph 1004.1mb 53f 55f
7:50am 9ft 9s 7s 4
1003.9mb 53f 53f
6:50am 9.5ft 10s 7s 2 4 mph 1003.9mb 53f 53f
5:50am 9ft 10s 7s 4 7 mph 1003.8mb 53f 55f
4:50am 11ft 11s 7s 11 13 mph 1003.8mb 53f 56f
3:50am 10ft 10s 7s 16 18 mph 1004mb 53f 57f
2:50am 9.5ft 11s 7s 20 25 mph 1003.8mb 53f 58f
1:50am 10ft 10s 7s 18 25 mph 1004mb 53f 57f
12:50am 10ft 8s 7s 18 20 mph 1004mb 53f 57f
Sat 10/03 11:50pm 11.5ft 11s 7s 25 27 mph 1003.9mb 53f 58f
10:50pm 11.5ft 9s 7s 18 22 mph 1004.1mb 53f 57f
9:50pm 11.5ft 9s 7s 16 20 mph 1004.4mb 53f 56f
8:50pm 13.5ft 10s 7s 22 27 mph 1004.2mb 53f 57f
7:50pm 13.5ft 9s 7s 31 38 mph 1003mb 53f 57f
6:50pm 13.5ft 10s 7s 31 38 mph 1002.9mb 53f 56f
5:50pm 12ft 9s 7s 29 38 mph 1003.6mb 53f 56f
4:50pm 13ft 9s 7s 31 38 mph 1004.4mb 53f 56f